sensor_id;sensor_type;location;lat;lon;timestamp;pressure;altitude;pressure_sealevel;temperature;humidity
11053;BME280;55230;42.602;23.470;2022-09-17T00:02:05;92588.69;;;15.93;100.00
11053;BME280;55230;42.602;23.470;2022-09-17T00:04:33;92093.16;;;12.54;100.00
11053;BME280;55230;42.602;23.470;2022-09-17T00:07:00;92512.13;;;15.32;100.00
11053;BME280;55230;42.602;23.470;2022-09-17T00:09:28;92731.63;;;16.92;100.00
11053;BME280;55230;42.602;23.470;2022-09-17T00:11:55;92687.75;;;16.60;100.00
11053;BME280;55230;42.602;23.470;2022-09-17T00:14:22;92711.31;;;16.52;100.00
11053;BME280;55230;42.602;23.470;2022-09-17T00:16:49;92735.53;;;16.96;100.00
11053;BME280;55230;42.602;23.470;2022-09-17T00:19:18;92731.41;;;16.84;100.00
11053;BME280;55230;42.602;23.470;2022-09-17T00:21:46;92712.69;;;16.75;100.00
11053;BME280;55230;42.602;23.470;2022-09-17T00:24:14;92706.47;;;16.75;100.00
11053;BME280;55230;42.602;23.470;2022-09-17T00:26:41;92672.97;;;15.93;100.00
11053;BME280;55230;42.602;23.470;2022-09-17T00:29:09;92703.53;;;16.73;100.00
11053;BME280;55230;42.602;23.470;2022-09-17T00:31:37;92481.00;;;15.33;100.00
11053;BME280;55230;42.602;23.470;2022-09-17T00:34:05;92697.47;;;16.50;100.00
11053;BME280;55230;42.602;23.470;2022-09-17T00:36:33;92697.66;;;16.63;100.00
11053;BME280;55230;42.602;23.470;2022-09-17T00:39:02;92690.41;;;16.71;100.00
11053;BME280;55230;42.602;23.470;2022-09-17T00:41:33;92690.47;;;16.60;100.00
11053;BME280;55230;42.602;23.470;2022-09-17T00:44:34;92693.81;;;16.31;100.00
11053;BME280;55230;42.602;23.470;2022-09-17T00:46:48;92520.03;;;15.24;100.00
11053;BME280;55230;42.602;23.470;2022-09-17T00:49:17;92582.84;;;15.78;100.00
11053;BME280;55230;42.602;23.470;2022-09-17T00:51:48;92684.06;;;16.58;100.00
11053;BME280;55230;42.602;23.470;2022-09-17T00:54:20;92686.53;;;16.61;100.00
11053;BME280;55230;42.602;23.470;2022-09-17T00:56:47;92602.28;;;15.93;100.00
11053;BME280;55230;42.602;23.470;2022-09-17T00:59:14;92702.09;;;16.61;100.00
11053;BME280;55230;42.602;23.470;2022-09-17T01:01:41;92708.47;;;16.69;100.00
11053;BME280;55230;42.602;23.470;2022-09-17T01:04:15;92723.91;;;16.55;100.00
11053;BME280;55230;42.602;23.470;2022-09-17T01:06:47;92712.56;;;16.51;100.00
11053;BME280;55230;42.602;23.470;2022-09-17T01:09:24;92721.44;;;16.57;100.00
11053;BME280;55230;42.602;23.470;2022-09-17T01:12:10;92721.72;;;16.48;100.00
11053;BME280;55230;42.602;23.470;2022-09-17T01:15:01;92605.09;;;15.71;100.00
11053;BME280;55230;42.602;23.470;2022-09-17T01:17:36;92710.31;;;16.55;100.00
11053;BME280;55230;42.602;23.470;2022-09-17T01:20:50;92692.63;;;16.27;100.00
11053;BME280;55230;42.602;23.470;2022-09-17T01:26:40;92676.66;;;16.06;100.00
11053;BME280;55230;42.602;23.470;2022-09-17T01:29:22;92703.00;;;16.23;100.00
11053;BME280;55230;42.602;23.470;2022-09-17T01:31:58;92706.59;;;15.90;100.00
11053;BME280;55230;42.602;23.470;2022-09-17T01:34:33;92655.81;;;15.52;100.00
11053;BME280;55230;42.602;23.470;2022-09-17T01:37:03;92694.19;;;16.00;100.00
11053;BME280;55230;42.602;23.470;2022-09-17T01:39:39;92705.88;;;15.84;100.00
11053;BME280;55230;42.602;23.470;2022-09-17T01:42:15;92702.88;;;15.98;100.00
11053;BME280;55230;42.602;23.470;2022-09-17T01:44:49;92590.38;;;15.39;100.00
11053;BME280;55230;42.602;23.470;2022-09-17T01:47:22;92662.00;;;15.52;100.00
11053;BME280;55230;42.602;23.470;2022-09-17T01:49:52;92717.00;;;15.86;100.00
11053;BME280;55230;42.602;23.470;2022-09-17T01:52:22;92668.59;;;15.73;100.00
11053;BME280;55230;42.602;23.470;2022-09-17T01:54:54;92703.06;;;16.11;100.00
11053;BME280;55230;42.602;23.470;2022-09-17T01:57:26;92666.03;;;16.03;100.00
11053;BME280;55230;42.602;23.470;2022-09-17T01:59:57;92539.28;;;15.32;100.00
11053;BME280;55230;42.602;23.470;2022-09-17T02:02:30;92568.75;;;15.74;100.00
11053;BME280;55230;42.602;23.470;2022-09-17T02:05:02;92622.81;;;16.35;100.00
11053;BME280;55230;42.602;23.470;2022-09-17T02:07:32;92626.97;;;16.47;100.00
11053;BME280;55230;42.602;23.470;2022-09-17T02:10:06;92540.31;;;16.21;100.00
11053;BME280;55230;42.602;23.470;2022-09-17T02:12:37;92536.41;;;16.52;99.76
11053;BME280;55230;42.602;23.470;2022-09-17T02:15:09;92652.13;;;17.53;93.66
11053;BME280;55230;42.602;23.470;2022-09-17T02:17:47;92642.41;;;17.81;90.45
11053;BME280;55230;42.602;23.470;2022-09-17T02:20:15;92546.34;;;17.51;87.76
11053;BME280;55230;42.602;23.470;2022-09-17T02:22:47;92667.84;;;18.69;90.01
11053;BME280;55230;42.602;23.470;2022-09-17T02:25:21;92628.84;;;17.52;100.00
11053;BME280;55230;42.602;23.470;2022-09-17T02:27:56;92569.50;;;17.15;100.00
11053;BME280;55230;42.602;23.470;2022-09-17T02:30:24;92589.66;;;17.55;100.00
11053;BME280;55230;42.602;23.470;2022-09-17T02:32:52;92345.72;;;15.96;100.00
11053;BME280;55230;42.602;23.470;2022-09-17T02:35:19;92579.75;;;17.52;100.00
11053;BME280;55230;42.602;23.470;2022-09-17T02:37:46;92558.88;;;17.60;100.00
11053;BME280;55230;42.602;23.470;2022-09-17T02:40:16;92512.88;;;17.51;100.00
11053;BME280;55230;42.602;23.470;2022-09-17T02:42:57;92554.41;;;18.68;85.03
11053;BME280;55230;42.602;23.470;2022-09-17T02:45:39;92449.59;;;18.71;79.87
11053;BME280;55230;42.602;23.470;2022-09-17T02:48:25;92399.91;;;19.12;74.20
11053;BME280;55230;42.602;23.470;2022-09-17T02:51:04;92440.84;;;19.98;70.70
11053;BME280;55230;42.602;23.470;2022-09-17T02:53:40;92538.75;;;21.00;68.01
11053;BME280;55230;42.602;23.470;2022-09-17T02:56:18;92550.69;;;20.15;78.54
11053;BME280;55230;42.602;23.470;2022-09-17T02:58:51;92552.97;;;18.30;91.27
11053;BME280;55230;42.602;23.470;2022-09-17T03:01:24;92523.38;;;16.69;100.00
11053;BME280;55230;42.602;23.470;2022-09-17T03:03:55;92417.59;;;16.30;100.00
11053;BME280;55230;42.602;23.470;2022-09-17T03:06:24;92082.44;;;13.85;100.00
11053;BME280;55230;42.602;23.470;2022-09-17T03:08:51;92576.81;;;17.01;100.00
11053;BME280;55230;42.602;23.470;2022-09-17T03:11:18;92487.03;;;16.01;100.00
11053;BME280;55230;42.602;23.470;2022-09-17T03:13:46;92301.00;;;14.45;100.00
11053;BME280;55230;42.602;23.470;2022-09-17T03:16:13;92539.38;;;16.13;100.00
11053;BME280;55230;42.602;23.470;2022-09-17T03:18:40;92562.41;;;16.47;100.00
11053;BME280;55230;42.602;23.470;2022-09-17T03:21:08;92552.22;;;16.18;100.00
11053;BME280;55230;42.602;23.470;2022-09-17T03:23:36;92532.44;;;16.12;100.00
11053;BME280;55230;42.602;23.470;2022-09-17T03:26:03;92520.50;;;16.26;100.00
11053;BME280;55230;42.602;23.470;2022-09-17T03:28:30;92517.69;;;16.02;100.00
11053;BME280;55230;42.602;23.470;2022-09-17T03:30:57;92536.84;;;15.85;100.00
11053;BME280;55230;42.602;23.470;2022-09-17T03:33:23;92503.72;;;15.41;100.00
11053;BME280;55230;42.602;23.470;2022-09-17T03:35:50;92551.38;;;15.88;100.00
11053;BME280;55230;42.602;23.470;2022-09-17T03:38:18;92557.56;;;15.88;100.00
11053;BME280;55230;42.602;23.470;2022-09-17T03:40:56;92476.56;;;15.41;100.00
11053;BME280;55230;42.602;23.470;2022-09-17T03:43:22;92581.22;;;16.04;100.00
11053;BME280;55230;42.602;23.470;2022-09-17T03:45:49;92534.78;;;15.51;100.00
11053;BME280;55230;42.602;23.470;2022-09-17T03:48:16;92535.91;;;16.12;100.00
11053;BME280;55230;42.602;23.470;2022-09-17T03:50:42;92534.63;;;16.19;100.00
11053;BME280;55230;42.602;23.470;2022-09-17T03:53:09;92427.38;;;15.44;100.00
11053;BME280;55230;42.602;23.470;2022-09-17T03:55:38;92529.59;;;16.34;100.00
11053;BME280;55230;42.602;23.470;2022-09-17T03:58:05;92553.47;;;16.52;100.00
11053;BME280;55230;42.602;23.470;2022-09-17T04:00:33;92534.22;;;16.74;100.00
11053;BME280;55230;42.602;23.470;2022-09-17T04:03:01;92537.13;;;16.82;100.00
11053;BME280;55230;42.602;23.470;2022-09-17T04:05:28;92541.19;;;16.99;100.00
11053;BME280;55230;42.602;23.470;2022-09-17T04:07:55;92380.72;;;16.05;100.00
11053;BME280;55230;42.602;23.470;2022-09-17T04:10:21;92492.72;;;16.92;100.00
11053;BME280;55230;42.602;23.470;2022-09-17T04:12:49;92544.69;;;17.43;100.00
11053;BME280;55230;42.602;23.470;2022-09-17T04:15:16;92478.19;;;16.84;100.00
11053;BME280;55230;42.602;23.470;2022-09-17T04:17:43;92571.53;;;17.57;100.00
11053;BME280;55230;42.602;23.470;2022-09-17T04:20:10;92575.94;;;17.60;99.08
11053;BME280;55230;42.602;23.470;2022-09-17T04:22:36;92588.13;;;17.78;98.68
11053;BME280;55230;42.602;23.470;2022-09-17T04:25:04;92540.75;;;17.62;96.72
11053;BME280;55230;42.602;23.470;2022-09-17T04:27:31;92253.97;;;15.48;95.38
11053;BME280;55230;42.602;23.470;2022-09-17T04:29:59;92593.69;;;17.91;95.67
11053;BME280;55230;42.602;23.470;2022-09-17T04:32:26;92526.88;;;17.60;94.62
11053;BME280;55230;42.602;23.470;2022-09-17T04:34:52;92598.13;;;17.94;94.36
11053;BME280;55230;42.602;23.470;2022-09-17T04:37:19;92649.59;;;18.03;93.42
11053;BME280;55230;42.602;23.470;2022-09-17T04:39:46;92661.75;;;18.02;94.59
11053;BME280;55230;42.602;23.470;2022-09-17T04:42:12;92066.56;;;13.65;95.08
11053;BME280;55230;42.602;23.470;2022-09-17T04:44:40;92453.88;;;16.38;95.07
11053;BME280;55230;42.602;23.470;2022-09-17T04:47:09;92208.41;;;14.65;94.83
11053;BME280;55230;42.602;23.470;2022-09-17T04:49:35;92698.78;;;18.16;94.90
11053;BME280;55230;42.602;23.470;2022-09-17T04:52:03;92629.19;;;17.67;95.08
11053;BME280;55230;42.602;23.470;2022-09-17T04:54:30;92722.78;;;18.23;95.18
11053;BME280;55230;42.602;23.470;2022-09-17T04:57:00;92538.78;;;16.61;97.59
11053;BME280;55230;42.602;23.470;2022-09-17T04:59:26;92392.25;;;15.52;98.70
11053;BME280;55230;42.602;23.470;2022-09-17T05:01:53;92742.34;;;18.03;100.00
11053;BME280;55230;42.602;23.470;2022-09-17T05:04:21;92503.66;;;16.28;100.00
11053;BME280;55230;42.602;23.470;2022-09-17T05:06:48;92741.25;;;18.11;100.00
11053;BME280;55230;42.602;23.470;2022-09-17T05:09:18;92387.31;;;15.50;100.00
11053;BME280;55230;42.602;23.470;2022-09-17T05:11:45;92546.84;;;16.77;100.00
11053;BME280;55230;42.602;23.470;2022-09-17T05:14:11;92644.69;;;17.53;100.00
11053;BME280;55230;42.602;23.470;2022-09-17T05:16:38;92722.00;;;18.04;100.00
11053;BME280;55230;42.602;23.470;2022-09-17T05:19:05;92635.78;;;17.53;100.00
11053;BME280;55230;42.602;23.470;2022-09-17T05:21:33;92704.13;;;17.84;100.00
11053;BME280;55230;42.602;23.470;2022-09-17T05:24:01;92696.09;;;17.92;100.00
11053;BME280;55230;42.602;23.470;2022-09-17T05:26:27;92690.56;;;17.97;100.00
11053;BME280;55230;42.602;23.470;2022-09-17T05:28:54;92576.16;;;16.60;100.00
11053;BME280;55230;42.602;23.470;2022-09-17T05:31:21;92690.47;;;17.30;100.00
11053;BME280;55230;42.602;23.470;2022-09-17T05:33:48;92700.19;;;17.56;100.00
11053;BME280;55230;42.602;23.470;2022-09-17T05:36:14;92692.97;;;17.58;100.00
11053;BME280;55230;42.602;23.470;2022-09-17T05:38:42;92666.00;;;17.55;100.00
11053;BME280;55230;42.602;23.470;2022-09-17T05:41:09;92677.69;;;17.74;100.00
11053;BME280;55230;42.602;23.470;2022-09-17T05:43:36;92668.94;;;17.81;100.00
11053;BME280;55230;42.602;23.470;2022-09-17T05:46:03;92404.31;;;16.21;100.00
11053;BME280;55230;42.602;23.470;2022-09-17T05:48:31;92663.91;;;18.09;100.00
11053;BME280;55230;42.602;23.470;2022-09-17T05:50:58;92657.72;;;18.27;100.00
11053;BME280;55230;42.602;23.470;2022-09-17T05:53:24;92601.91;;;17.67;100.00
11053;BME280;55230;42.602;23.470;2022-09-17T05:55:56;92667.31;;;18.15;100.00
11053;BME280;55230;42.602;23.470;2022-09-17T05:58:23;92677.78;;;17.87;100.00
11053;BME280;55230;42.602;23.470;2022-09-17T06:00:51;92692.81;;;17.45;100.00
11053;BME280;55230;42.602;23.470;2022-09-17T06:03:19;92710.50;;;17.33;100.00
11053;BME280;55230;42.602;23.470;2022-09-17T06:05:52;92709.31;;;17.28;100.00
11053;BME280;55230;42.602;23.470;2022-09-17T06:08:19;92457.66;;;15.65;100.00
11053;BME280;55230;42.602;23.470;2022-09-17T06:10:46;92712.63;;;17.46;100.00
11053;BME280;55230;42.602;23.470;2022-09-17T06:13:15;92644.75;;;17.18;100.00
11053;BME280;55230;42.602;23.470;2022-09-17T06:15:41;92644.00;;;17.17;100.00
11053;BME280;55230;42.602;23.470;2022-09-17T06:18:08;92685.56;;;17.23;100.00
11053;BME280;55230;42.602;23.470;2022-09-17T06:20:35;92718.72;;;16.98;100.00
11053;BME280;55230;42.602;23.470;2022-09-17T06:23:02;92721.66;;;17.00;100.00
11053;BME280;55230;42.602;23.470;2022-09-17T06:25:28;92723.72;;;17.23;100.00
11053;BME280;55230;42.602;23.470;2022-09-17T06:27:56;92713.19;;;17.39;100.00
11053;BME280;55230;42.602;23.470;2022-09-17T06:30:24;92722.50;;;17.54;100.00
11053;BME280;55230;42.602;23.470;2022-09-17T06:32:50;92723.13;;;17.66;100.00
11053;BME280;55230;42.602;23.470;2022-09-17T06:35:17;92724.97;;;17.52;100.00
11053;BME280;55230;42.602;23.470;2022-09-17T06:37:44;92721.41;;;17.63;100.00
11053;BME280;55230;42.602;23.470;2022-09-17T06:40:11;92739.13;;;17.45;100.00
11053;BME280;55230;42.602;23.470;2022-09-17T06:42:38;92783.34;;;16.97;100.00
11053;BME280;55230;42.602;23.470;2022-09-17T06:45:05;92778.41;;;16.90;100.00
11053;BME280;55230;42.602;23.470;2022-09-17T06:47:33;92780.59;;;16.51;100.00
11053;BME280;55230;42.602;23.470;2022-09-17T06:50:00;92652.91;;;16.01;100.00
11053;BME280;55230;42.602;23.470;2022-09-17T06:52:27;92810.66;;;17.27;100.00
11053;BME280;55230;42.602;23.470;2022-09-17T06:54:53;92795.56;;;17.20;100.00
11053;BME280;55230;42.602;23.470;2022-09-17T06:57:20;92730.09;;;16.96;100.00
11053;BME280;55230;42.602;23.470;2022-09-17T06:59:47;92702.28;;;17.09;100.00
11053;BME280;55230;42.602;23.470;2022-09-17T07:02:16;92698.69;;;17.25;100.00
11053;BME280;55230;42.602;23.470;2022-09-17T07:04:44;92688.34;;;17.18;100.00
11053;BME280;55230;42.602;23.470;2022-09-17T07:07:11;92708.78;;;17.65;100.00
11053;BME280;55230;42.602;23.470;2022-09-17T07:09:37;92692.50;;;17.54;100.00
11053;BME280;55230;42.602;23.470;2022-09-17T07:12:06;92659.38;;;17.93;100.00
11053;BME280;55230;42.602;23.470;2022-09-17T07:14:33;92712.00;;;18.55;100.00
11053;BME280;55230;42.602;23.470;2022-09-17T07:17:00;92729.75;;;19.17;100.00
11053;BME280;55230;42.602;23.470;2022-09-17T07:19:27;92690.50;;;19.91;100.00
11053;BME280;55230;42.602;23.470;2022-09-17T07:21:55;92698.50;;;20.41;100.00
11053;BME280;55230;42.602;23.470;2022-09-17T07:24:22;92680.59;;;20.40;98.43
11053;BME280;55230;42.602;23.470;2022-09-17T07:26:49;92622.69;;;19.97;94.25
11053;BME280;55230;42.602;23.470;2022-09-17T07:29:16;92686.72;;;20.07;92.15
11053;BME280;55230;42.602;23.470;2022-09-17T07:31:43;92531.34;;;18.82;98.97
11053;BME280;55230;42.602;23.470;2022-09-17T07:34:09;92692.38;;;19.83;100.00
11053;BME280;55230;42.602;23.470;2022-09-17T07:36:36;92677.13;;;19.74;100.00
11053;BME280;55230;42.602;23.470;2022-09-17T07:39:04;92679.03;;;20.31;100.00
11053;BME280;55230;42.602;23.470;2022-09-17T07:41:31;92680.38;;;20.51;100.00
11053;BME280;55230;42.602;23.470;2022-09-17T07:43:58;92588.41;;;19.43;100.00
11053;BME280;55230;42.602;23.470;2022-09-17T07:46:27;92681.97;;;20.33;100.00
11053;BME280;55230;42.602;23.470;2022-09-17T07:48:53;92683.78;;;20.31;99.99
11053;BME280;55230;42.602;23.470;2022-09-17T07:51:22;92659.28;;;20.59;100.00
11053;BME280;55230;42.602;23.470;2022-09-17T07:53:50;92675.25;;;20.81;94.68
11053;BME280;55230;42.602;23.470;2022-09-17T07:56:18;92666.44;;;20.96;95.60
11053;BME280;55230;42.602;23.470;2022-09-17T07:58:45;92197.81;;;17.74;92.92
11053;BME280;55230;42.602;23.470;2022-09-17T08:01:13;92601.16;;;20.40;94.08
11053;BME280;55230;42.602;23.470;2022-09-17T08:03:41;92671.28;;;20.69;94.06
11053;BME280;55230;42.602;23.470;2022-09-17T08:06:10;92662.16;;;20.40;96.62
11053;BME280;55230;42.602;23.470;2022-09-17T08:08:38;92547.94;;;19.42;99.75
11053;BME280;55230;42.602;23.470;2022-09-17T08:11:07;92659.91;;;20.52;100.00
11053;BME280;55230;42.602;23.470;2022-09-17T08:13:36;92665.41;;;20.52;95.57
11053;BME280;55230;42.602;23.470;2022-09-17T08:16:05;92590.59;;;20.10;96.53
11053;BME280;55230;42.602;23.470;2022-09-17T08:18:32;92655.72;;;20.85;93.53
11053;BME280;55230;42.602;23.470;2022-09-17T08:21:01;92605.78;;;20.45;91.60
11053;BME280;55230;42.602;23.470;2022-09-17T08:23:29;92635.44;;;21.21;89.77
11053;BME280;55230;42.602;23.470;2022-09-17T08:25:57;92497.78;;;20.33;86.92
11053;BME280;55230;42.602;23.470;2022-09-17T08:28:26;92632.41;;;21.53;83.72
11053;BME280;55230;42.602;23.470;2022-09-17T08:30:59;92518.56;;;21.39;84.93
11053;BME280;55230;42.602;23.470;2022-09-17T08:33:29;92628.53;;;22.33;82.36
11053;BME280;55230;42.602;23.470;2022-09-17T08:35:56;92636.94;;;22.70;81.05
11053;BME280;55230;42.602;23.470;2022-09-17T08:38:24;92637.81;;;22.22;79.32
11053;BME280;55230;42.602;23.470;2022-09-17T08:40:59;92542.97;;;21.22;79.69
11053;BME280;55230;42.602;23.470;2022-09-17T08:43:30;92647.78;;;22.05;77.23
11053;BME280;55230;42.602;23.470;2022-09-17T08:46:01;92641.47;;;21.89;76.58
11053;BME280;55230;42.602;23.470;2022-09-17T08:48:34;92642.13;;;21.33;76.38
11053;BME280;55230;42.602;23.470;2022-09-17T08:51:06;92637.59;;;21.15;77.61
11053;BME280;55230;42.602;23.470;2022-09-17T08:53:49;92639.84;;;21.65;75.66
11053;BME280;55230;42.602;23.470;2022-09-17T08:56:21;92634.72;;;21.69;75.84
11053;BME280;55230;42.602;23.470;2022-09-17T08:58:58;92622.78;;;21.39;78.15
11053;BME280;55230;42.602;23.470;2022-09-17T09:01:38;92649.56;;;21.25;77.08
11053;BME280;55230;42.602;23.470;2022-09-17T09:04:35;92639.13;;;21.03;78.37
11053;BME280;55230;42.602;23.470;2022-09-17T09:07:07;92584.88;;;20.34;79.33
11053;BME280;55230;42.602;23.470;2022-09-17T09:09:38;92645.63;;;20.80;80.63
11053;BME280;55230;42.602;23.470;2022-09-17T09:12:12;92471.56;;;19.57;81.69
11053;BME280;55230;42.602;23.470;2022-09-17T09:14:47;92652.19;;;21.10;82.47
11053;BME280;55230;42.602;23.470;2022-09-17T09:17:17;92657.00;;;21.17;83.65
11053;BME280;55230;42.602;23.470;2022-09-17T09:19:47;92604.00;;;20.81;83.96
11053;BME280;55230;42.602;23.470;2022-09-17T09:22:30;92607.56;;;20.76;84.10
11053;BME280;55230;42.602;23.470;2022-09-17T09:25:04;92608.63;;;20.86;86.86
11053;BME280;55230;42.602;23.470;2022-09-17T09:27:41;92657.66;;;21.10;89.19
11053;BME280;55230;42.602;23.470;2022-09-17T09:30:13;92296.69;;;18.58;91.13
11053;BME280;55230;42.602;23.470;2022-09-17T09:32:53;92670.66;;;20.97;93.34
11053;BME280;55230;42.602;23.470;2022-09-17T09:35:24;92681.41;;;20.95;95.32
11053;BME280;55230;42.602;23.470;2022-09-17T09:37:59;92696.97;;;20.66;99.86
11053;BME280;55230;42.602;23.470;2022-09-17T09:40:33;92566.22;;;19.60;100.00
11053;BME280;55230;42.602;23.470;2022-09-17T09:43:06;92710.06;;;20.08;100.00
11053;BME280;55230;42.602;23.470;2022-09-17T09:45:45;92683.53;;;19.90;100.00
11053;BME280;55230;42.602;23.470;2022-09-17T09:48:23;92580.97;;;19.12;100.00
11053;BME280;55230;42.602;23.470;2022-09-17T09:51:07;92724.06;;;19.91;100.00
11053;BME280;55230;42.602;23.470;2022-09-17T09:53:45;92455.13;;;17.71;100.00
11053;BME280;55230;42.602;23.470;2022-09-17T09:56:31;92676.03;;;19.51;100.00
11053;BME280;55230;42.602;23.470;2022-09-17T09:59:05;92734.47;;;19.80;97.55
11053;BME280;55230;42.602;23.470;2022-09-17T10:01:33;92727.81;;;19.62;99.72
11053;BME280;55230;42.602;23.470;2022-09-17T10:04:15;92685.91;;;19.22;100.00
11053;BME280;55230;42.602;23.470;2022-09-17T10:06:42;92736.50;;;19.47;100.00
11053;BME280;55230;42.602;23.470;2022-09-17T10:09:11;92728.56;;;19.31;100.00
11053;BME280;55230;42.602;23.470;2022-09-17T10:11:38;92679.09;;;18.97;100.00
11053;BME280;55230;42.602;23.470;2022-09-17T10:14:21;92685.50;;;19.18;100.00
11053;BME280;55230;42.602;23.470;2022-09-17T10:16:49;92579.81;;;18.63;100.00
11053;BME280;55230;42.602;23.470;2022-09-17T10:19:37;92646.03;;;19.32;100.00
11053;BME280;55230;42.602;23.470;2022-09-17T10:22:26;92440.97;;;17.91;100.00
11053;BME280;55230;42.602;23.470;2022-09-17T10:24:56;92645.56;;;19.28;100.00
11053;BME280;55230;42.602;23.470;2022-09-17T10:27:24;92518.00;;;18.47;100.00
11053;BME280;55230;42.602;23.470;2022-09-17T10:30:02;92633.22;;;19.40;100.00
11053;BME280;55230;42.602;23.470;2022-09-17T10:32:39;92598.72;;;19.06;100.00
11053;BME280;55230;42.602;23.470;2022-09-17T10:35:25;92605.75;;;19.33;100.00
11053;BME280;55230;42.602;23.470;2022-09-17T10:37:53;92545.38;;;18.73;100.00
11053;BME280;55230;42.602;23.470;2022-09-17T10:40:29;92633.94;;;19.09;100.00
11053;BME280;55230;42.602;23.470;2022-09-17T10:43:21;92605.56;;;19.12;100.00
11053;BME280;55230;42.602;23.470;2022-09-17T10:45:56;92598.97;;;19.21;100.00
11053;BME280;55230;42.602;23.470;2022-09-17T10:48:26;92537.63;;;18.77;100.00
11053;BME280;55230;42.602;23.470;2022-09-17T10:50:56;92570.28;;;19.14;100.00
11053;BME280;55230;42.602;23.470;2022-09-17T10:53:25;92485.69;;;18.51;100.00
11053;BME280;55230;42.602;23.470;2022-09-17T10:55:59;92554.53;;;19.20;100.00
11053;BME280;55230;42.602;23.470;2022-09-17T10:58:42;92527.59;;;19.24;100.00
11053;BME280;55230;42.602;23.470;2022-09-17T11:01:26;92346.78;;;18.03;100.00
11053;BME280;55230;42.602;23.470;2022-09-17T11:04:14;92538.97;;;19.41;100.00
11053;BME280;55230;42.602;23.470;2022-09-17T11:07:00;92550.75;;;19.36;100.00
11053;BME280;55230;42.602;23.470;2022-09-17T11:09:39;92557.81;;;19.58;100.00
11053;BME280;55230;42.602;23.470;2022-09-17T11:12:23;92566.75;;;19.59;100.00
11053;BME280;55230;42.602;23.470;2022-09-17T11:14:56;92567.16;;;19.63;100.00
11053;BME280;55230;42.602;23.470;2022-09-17T11:17:49;92567.59;;;19.67;100.00
11053;BME280;55230;42.602;23.470;2022-09-17T11:20:28;92405.25;;;18.52;98.41
11053;BME280;55230;42.602;23.470;2022-09-17T11:23:11;92576.31;;;19.91;97.27
11053;BME280;55230;42.602;23.470;2022-09-17T11:25:46;92572.78;;;20.04;94.90
11053;BME280;55230;42.602;23.470;2022-09-17T11:28:32;92587.78;;;19.77;93.91
11053;BME280;55230;42.602;23.470;2022-09-17T11:31:08;92557.03;;;19.97;91.87
11053;BME280;55230;42.602;23.470;2022-09-17T11:34:00;92499.44;;;19.55;85.99
11053;BME280;55230;42.602;23.470;2022-09-17T11:36:37;92602.03;;;20.35;92.35
11053;BME280;55230;42.602;23.470;2022-09-17T11:39:14;92444.34;;;19.25;87.14
11053;BME280;55230;42.602;23.470;2022-09-17T11:41:45;92619.22;;;20.69;88.40
11053;BME280;55230;42.602;23.470;2022-09-17T11:44:15;92625.84;;;20.74;88.82
11053;BME280;55230;42.602;23.470;2022-09-17T11:46:48;92421.84;;;19.45;88.19
11053;BME280;55230;42.602;23.470;2022-09-17T11:49:22;92622.03;;;20.97;86.75
11053;BME280;55230;42.602;23.470;2022-09-17T11:51:54;92578.31;;;20.71;84.04
11053;BME280;55230;42.602;23.470;2022-09-17T11:54:27;92604.13;;;20.96;86.69
11053;BME280;55230;42.602;23.470;2022-09-17T11:57:01;92529.31;;;20.47;89.99
11053;BME280;55230;42.602;23.470;2022-09-17T11:59:34;92484.00;;;19.92;94.26
11053;BME280;55230;42.602;23.470;2022-09-17T12:02:10;92596.09;;;20.57;96.08
11053;BME280;55230;42.602;23.470;2022-09-17T12:04:43;92588.75;;;20.39;97.47
11053;BME280;55230;42.602;23.470;2022-09-17T12:07:22;92578.88;;;20.36;97.07
11053;BME280;55230;42.602;23.470;2022-09-17T12:09:58;92573.75;;;20.19;97.08
11053;BME280;55230;42.602;23.470;2022-09-17T12:12:26;92587.13;;;20.10;98.65
11053;BME280;55230;42.602;23.470;2022-09-17T12:14:57;92576.00;;;19.95;100.00
11053;BME280;55230;42.602;23.470;2022-09-17T12:17:32;92451.81;;;18.99;100.00
11053;BME280;55230;42.602;23.470;2022-09-17T12:20:04;92579.06;;;19.91;100.00
11053;BME280;55230;42.602;23.470;2022-09-17T12:22:34;92589.84;;;19.97;100.00
11053;BME280;55230;42.602;23.470;2022-09-17T12:25:09;92590.06;;;19.99;100.00
11053;BME280;55230;42.602;23.470;2022-09-17T12:27:39;92584.38;;;19.97;100.00
11053;BME280;55230;42.602;23.470;2022-09-17T12:30:11;92574.94;;;19.72;100.00
11053;BME280;55230;42.602;23.470;2022-09-17T12:32:57;92601.03;;;19.86;100.00
11053;BME280;55230;42.602;23.470;2022-09-17T12:35:54;92577.91;;;19.74;100.00
11053;BME280;55230;42.602;23.470;2022-09-17T12:38:34;92566.53;;;19.70;100.00
11053;BME280;55230;42.602;23.470;2022-09-17T12:41:10;92504.78;;;18.96;100.00
11053;BME280;55230;42.602;23.470;2022-09-17T12:44:00;92566.84;;;19.40;100.00
11053;BME280;55230;42.602;23.470;2022-09-17T12:46:46;92559.56;;;19.29;100.00
11053;BME280;55230;42.602;23.470;2022-09-17T12:52:12;92568.47;;;19.04;100.00
11053;BME280;55230;42.602;23.470;2022-09-17T12:57:44;92418.94;;;18.02;100.00
11053;BME280;55230;42.602;23.470;2022-09-17T13:00:15;92511.56;;;18.76;100.00
11053;BME280;55230;42.602;23.470;2022-09-17T13:02:46;92477.50;;;18.51;100.00
11053;BME280;55230;42.602;23.470;2022-09-17T13:05:41;92554.91;;;19.11;100.00
11053;BME280;55230;42.602;23.470;2022-09-17T13:08:42;92542.94;;;19.01;100.00
11053;BME280;55230;42.602;23.470;2022-09-17T13:14:20;92543.78;;;19.09;100.00
11053;BME280;55230;42.602;23.470;2022-09-17T13:16:53;92496.47;;;18.88;100.00
11053;BME280;55230;42.602;23.470;2022-09-17T13:19:29;92520.66;;;19.23;100.00